Time;durP1;ratioP1;P1;durP2;ratioP2;P2;SDS_P1;SDS_P2;PMS_P1;PMS_P2;Temp;Humidity;BMP_temperature;BMP_pressure;BME280_temperature;BME280_humidity;BME280_pressure;Samples;Min_cycle;Max_cycle;Signal;HPM_P1;HPM_P2
2022/03/30 00:02:03;;;;;;;34.83;15.03;;;;;11.00;95228.00;;;;8379705;28;20228;-73
2022/03/30 00:06:07;;;;;;;29.10;15.00;;;;;11.00;95227.00;;;;8384675;28;20918;-73
2022/03/30 00:10:10;;;;;;;30.67;14.07;;;;;11.10;95221.00;;;;8389674;28;20224;-72
2022/03/30 00:14:14;;;;;;;32.00;14.57;;;;;11.10;95208.00;;;;8382192;28;20622;-72
2022/03/30 00:18:17;;;;;;;28.53;14.27;;;;;11.10;95201.00;;;;8383292;28;20231;-72
2022/03/30 00:22:21;;;;;;;30.07;14.53;;;;;11.10;95198.00;;;;8389164;28;20239;-73
2022/03/30 00:26:24;;;;;;;28.00;13.90;;;;;11.10;95193.00;;;;8383678;28;20231;-73
2022/03/30 00:30:29;;;;;;;26.90;14.40;;;;;11.10;95188.00;;;;8391750;28;20231;-73
2022/03/30 00:34:32;;;;;;;28.30;13.50;;;;;11.10;95181.00;;;;8380776;28;20230;-73
2022/03/30 00:38:36;;;;;;;29.13;13.53;;;;;11.00;95175.00;;;;8393380;28;20234;-73
2022/03/30 00:42:39;;;;;;;30.07;14.23;;;;;10.90;95180.00;;;;8380268;28;20234;-72
2022/03/30 00:46:44;;;;;;;31.70;13.57;;;;;10.90;95165.00;;;;8383575;28;20308;-73
2022/03/30 00:50:47;;;;;;;29.97;15.10;;;;;10.90;95153.00;;;;8399615;28;20567;-73
2022/03/30 00:54:52;;;;;;;29.20;14.40;;;;;10.90;95157.00;;;;8394551;28;20229;-72
2022/03/30 00:58:55;;;;;;;29.60;14.03;;;;;10.80;95147.00;;;;8401177;28;20223;-72
2022/03/30 01:03:00;;;;;;;29.00;13.40;;;;;10.80;95144.00;;;;8399340;28;20246;-72
2022/03/30 01:07:04;;;;;;;32.00;14.52;;;;;10.80;95133.00;;;;8397483;28;20224;-72
2022/03/30 01:11:10;;;;;;;27.20;14.13;;;;;10.80;95131.00;;;;8387239;28;20228;-73
2022/03/30 01:15:14;;;;;;;34.07;14.23;;;;;10.70;95126.00;;;;8392399;28;20246;-72
2022/03/30 01:19:20;;;;;;;31.23;13.57;;;;;10.70;95126.00;;;;8393114;28;20756;-72
2022/03/30 01:23:25;;;;;;;34.00;14.07;;;;;10.70;95116.00;;;;8398294;28;20242;-72
2022/03/30 01:27:28;;;;;;;31.10;14.37;;;;;10.70;95110.00;;;;8405018;28;20554;-72
2022/03/30 01:35:53;;;;;;;27.67;13.87;;;;;10.60;95101.00;;;;8390592;28;20232;-72
2022/03/30 01:39:59;;;;;;;32.67;14.27;;;;;10.50;95097.00;;;;8389672;28;20231;-72
2022/03/30 01:44:02;;;;;;;31.13;15.27;;;;;10.40;95083.00;;;;8381720;28;20720;-72
2022/03/30 01:48:06;;;;;;;33.67;14.37;;;;;10.30;95066.00;;;;8390242;28;20232;-72
2022/03/30 01:52:10;;;;;;;33.87;14.80;;;;;10.30;95063.00;;;;8389908;28;20303;-72
2022/03/30 01:56:14;;;;;;;26.87;13.80;;;;;10.40;95056.00;;;;8388239;28;20216;-71
2022/03/30 02:00:19;;;;;;;28.47;14.73;;;;;10.50;95054.00;;;;8395879;28;20223;-71
2022/03/30 02:04:24;;;;;;;31.57;14.70;;;;;10.50;95054.00;;;;8386931;28;20909;-72
2022/03/30 02:08:28;;;;;;;30.23;14.90;;;;;10.60;95043.00;;;;8389894;28;20265;-72
2022/03/30 02:12:32;;;;;;;33.13;14.87;;;;;10.60;95048.00;;;;8392026;28;20232;-71
2022/03/30 02:16:36;;;;;;;31.03;15.33;;;;;10.70;95034.00;;;;8393772;28;20237;-72
2022/03/30 02:20:41;;;;;;;28.83;14.93;;;;;10.70;95033.00;;;;8387129;28;20228;-72
2022/03/30 02:24:45;;;;;;;31.60;15.00;;;;;10.70;95029.00;;;;8388949;28;20829;-72
2022/03/30 02:28:51;;;;;;;26.43;14.33;;;;;10.70;95023.00;;;;8380172;28;20231;-72
2022/03/30 02:32:54;;;;;;;35.00;15.23;;;;;10.70;95024.00;;;;8388169;28;20277;-71
2022/03/30 02:36:57;;;;;;;32.97;15.23;;;;;10.60;95020.00;;;;8387447;28;20242;-71
2022/03/30 02:41:01;;;;;;;35.50;15.73;;;;;10.60;95021.00;;;;8405593;28;20271;-72
2022/03/30 02:45:06;;;;;;;32.20;15.93;;;;;10.60;95014.00;;;;8405009;28;20314;-71
2022/03/30 02:49:10;;;;;;;29.23;15.17;;;;;10.50;95006.00;;;;8389150;28;20222;-72
2022/03/30 02:53:13;;;;;;;34.23;15.60;;;;;10.50;95008.00;;;;8388242;28;20227;-72
2022/03/30 02:57:17;;;;;;;35.70;15.57;;;;;10.40;95007.00;;;;8390496;28;20318;-72
2022/03/30 03:01:21;;;;;;;31.80;16.20;;;;;10.30;95006.00;;;;8436707;22;20240;-71
2022/03/30 03:05:27;;;;;;;30.70;15.23;;;;;10.30;95001.00;;;;8444776;22;20993;-72
2022/03/30 03:09:30;;;;;;;31.23;15.87;;;;;10.30;95005.00;;;;8396996;28;20254;-73
2022/03/30 03:13:34;;;;;;;38.17;16.80;;;;;10.30;94991.00;;;;8404435;28;20560;-71
2022/03/30 03:17:38;;;;;;;37.57;15.70;;;;;10.10;94992.00;;;;8403065;28;20228;-71
2022/03/30 03:21:42;;;;;;;37.47;17.07;;;;;10.00;94997.00;;;;8407870;28;20233;-71
2022/03/30 03:25:46;;;;;;;42.63;18.17;;;;;9.80;94990.00;;;;8400670;28;20233;-72
2022/03/30 03:29:49;;;;;;;40.50;18.33;;;;;9.70;94987.00;;;;8403436;28;20226;-72
2022/03/30 03:33:54;;;;;;;36.60;17.50;;;;;9.70;94983.00;;;;8403363;28;20235;-72
2022/03/30 03:37:57;;;;;;;39.93;17.93;;;;;9.60;94976.00;;;;8402642;28;20212;-71
2022/03/30 03:42:00;;;;;;;38.53;17.03;;;;;9.70;94966.00;;;;8409891;28;20237;-70
2022/03/30 03:46:03;;;;;;;44.73;19.40;;;;;9.60;94967.00;;;;8411029;28;20230;-69
2022/03/30 03:50:10;;;;;;;42.23;19.27;;;;;9.70;94969.00;;;;8404349;28;20273;-70
2022/03/30 03:54:13;;;;;;;47.10;18.97;;;;;9.80;94971.00;;;;8406885;28;20236;-72
2022/03/30 03:58:16;;;;;;;48.00;19.07;;;;;9.90;94958.00;;;;8404541;28;20223;-72
2022/03/30 04:02:19;;;;;;;46.53;18.30;;;;;10.00;94973.00;;;;8407762;28;20242;-72
2022/03/30 04:06:25;;;;;;;39.77;18.00;;;;;10.10;94965.00;;;;8379304;28;20223;-73
2022/03/30 04:10:28;;;;;;;38.27;17.40;;;;;10.10;94968.00;;;;8380157;28;20924;-72
2022/03/30 04:14:31;;;;;;;40.13;18.17;;;;;10.20;94969.00;;;;8376135;28;20446;-72
2022/03/30 04:18:34;;;;;;;39.50;17.80;;;;;10.20;94960.00;;;;8375776;28;20247;-72
2022/03/30 04:22:39;;;;;;;41.93;17.73;;;;;10.30;94952.00;;;;8370887;28;20253;-72
2022/03/30 04:26:43;;;;;;;37.33;17.50;;;;;10.30;94946.00;;;;8392174;28;20219;-74
2022/03/30 04:30:46;;;;;;;41.00;19.00;;;;;10.20;94936.00;;;;8390798;28;20216;-73
2022/03/30 04:34:49;;;;;;;41.73;18.83;;;;;10.20;94933.00;;;;8377897;28;20710;-71
2022/03/30 04:38:55;;;;;;;40.03;18.90;;;;;10.10;94927.00;;;;8394042;28;20247;-72
2022/03/30 04:42:58;;;;;;;35.97;17.90;;;;;10.00;94917.00;;;;8397346;28;20234;-72
2022/03/30 04:47:02;;;;;;;43.87;18.70;;;;;9.90;94906.00;;;;8396361;28;20227;-72
2022/03/30 04:51:06;;;;;;;40.90;18.40;;;;;9.90;94913.00;;;;8393546;28;20249;-72
2022/03/30 04:55:11;;;;;;;43.30;20.23;;;;;9.90;94912.00;;;;8385154;28;20238;-71
2022/03/30 04:59:15;;;;;;;42.23;19.97;;;;;9.80;94912.00;;;;8393727;28;20223;-72
2022/03/30 05:03:18;;;;;;;39.57;19.73;;;;;9.80;94909.00;;;;8388164;28;20238;-72
2022/03/30 05:07:21;;;;;;;43.97;19.57;;;;;9.70;94900.00;;;;8390505;28;20346;-71
2022/03/30 05:11:26;;;;;;;43.87;19.93;;;;;9.70;94903.00;;;;8384754;28;20226;-73
2022/03/30 05:15:29;;;;;;;39.23;18.77;;;;;9.60;94895.00;;;;8386041;28;20296;-70
2022/03/30 05:19:32;;;;;;;47.70;21.63;;;;;9.60;94895.00;;;;8388007;28;20696;-71
2022/03/30 05:23:36;;;;;;;38.87;20.47;;;;;9.60;94892.00;;;;8381792;28;20241;-71
2022/03/30 05:27:41;;;;;;;52.30;21.23;;;;;9.60;94894.00;;;;8394609;28;20227;-71
2022/03/30 05:31:45;;;;;;;43.03;20.47;;;;;9.70;94896.00;;;;8395513;28;20212;-71
2022/03/30 05:36:08;;;;;;;45.13;20.17;;;;;9.80;94906.00;;;;8381039;28;20235;-71
2022/03/30 05:40:12;;;;;;;37.33;19.00;;;;;9.90;94899.00;;;;8379242;28;20242;-72
2022/03/30 05:44:16;;;;;;;47.13;20.73;;;;;9.90;94887.00;;;;8382363;28;20228;-71
2022/03/30 05:48:19;;;;;;;41.40;19.93;;;;;10.00;94893.00;;;;8385483;28;20702;-72
2022/03/30 05:52:23;;;;;;;49.70;20.53;;;;;10.00;94894.00;;;;8381828;28;20227;-71
2022/03/30 06:00:45;;;;;;;43.83;19.97;;;;;10.10;94887.00;;;;8380190;28;20655;-73
2022/03/30 06:04:50;;;;;;;42.93;20.03;;;;;10.10;94882.00;;;;8388507;28;20806;-71
2022/03/30 06:08:54;;;;;;;36.70;19.20;;;;;10.20;94892.00;;;;8383944;28;20280;-73
2022/03/30 06:12:57;;;;;;;43.50;20.80;;;;;10.20;94890.00;;;;8383698;28;20960;-72
2022/03/30 06:17:04;;;;;;;45.23;20.33;;;;;10.30;94880.00;;;;8376527;28;20228;-71
2022/03/30 06:21:07;;;;;;;42.37;20.13;;;;;10.30;94881.00;;;;8387433;28;20246;-72
2022/03/30 06:25:11;;;;;;;47.30;20.90;;;;;10.40;94879.00;;;;8378880;28;20233;-72
2022/03/30 06:29:15;;;;;;;43.23;20.23;;;;;10.40;94879.00;;;;8378911;28;20231;-70
2022/03/30 06:33:19;;;;;;;41.83;20.20;;;;;10.50;94877.00;;;;8382403;28;20269;-71
2022/03/30 06:37:22;;;;;;;45.33;20.70;;;;;10.60;94876.00;;;;8384274;28;20254;-71
2022/03/30 06:41:25;;;;;;;41.57;19.47;;;;;10.80;94873.00;;;;8379680;28;20227;-71
2022/03/30 06:45:28;;;;;;;38.60;19.37;;;;;10.90;94879.00;;;;8381407;28;20239;-72
2022/03/30 06:49:33;;;;;;;40.53;19.43;;;;;11.10;94875.00;;;;8380707;28;21006;-70
2022/03/30 06:53:37;;;;;;;38.73;18.80;;;;;11.30;94872.00;;;;8388911;28;20702;-72
2022/03/30 06:57:40;;;;;;;37.03;19.70;;;;;11.60;94873.00;;;;8385019;28;20245;-70
2022/03/30 07:01:43;;;;;;;39.40;19.43;;;;;11.80;94871.00;;;;8394781;28;20227;-70
2022/03/30 07:05:48;;;;;;;42.60;20.17;;;;;12.00;94861.00;;;;8390252;28;20239;-70
2022/03/30 07:14:12;;;;;;;41.27;19.23;;;;;12.10;94874.00;;;;8385903;28;20663;-71
2022/03/30 07:18:15;;;;;;;39.73;18.10;;;;;12.10;94870.00;;;;8377478;28;20226;-71
2022/03/30 07:22:20;;;;;;;36.33;18.77;;;;;12.20;94867.00;;;;8385158;28;20707;-71
2022/03/30 07:26:23;;;;;;;36.73;18.50;;;;;12.20;94867.00;;;;8382126;28;20241;-71
2022/03/30 07:30:27;;;;;;;39.63;19.10;;;;;12.20;94863.00;;;;8378517;28;20385;-71
2022/03/30 07:34:30;;;;;;;36.33;18.60;;;;;12.20;94867.00;;;;8380875;28;20224;-71
2022/03/30 07:38:35;;;;;;;38.92;19.88;;;;;12.20;94865.00;;;;8385375;28;20231;-71
2022/03/30 07:42:39;;;;;;;38.73;19.97;;;;;12.10;94870.00;;;;8375111;28;20227;-71
2022/03/30 07:46:43;;;;;;;40.88;18.50;;;;;12.00;94875.00;;;;8376903;28;20242;-71
2022/03/30 07:50:47;;;;;;;39.95;18.77;;;;;12.00;94872.00;;;;8392395;28;20747;-72
2022/03/30 07:54:52;;;;;;;43.33;18.87;;;;;12.00;94871.00;;;;8378767;28;20588;-72
2022/03/30 07:58:57;;;;;;;43.10;18.58;;;;;12.00;94875.00;;;;8393485;28;20310;-72
2022/03/30 08:03:01;;;;;;;46.80;20.50;;;;;12.10;94869.00;;;;8391641;28;20252;-71
2022/03/30 08:07:04;;;;;;;38.20;19.20;;;;;12.10;94871.00;;;;8393743;28;20658;-72
2022/03/30 08:11:09;;;;;;;42.08;19.85;;;;;12.10;94877.00;;;;8387092;28;20224;-72
2022/03/30 08:15:14;;;;;;;45.80;20.53;;;;;12.20;94876.00;;;;8386111;28;20294;-73
2022/03/30 08:19:17;;;;;;;41.30;19.13;;;;;12.20;94883.00;;;;8383951;28;20239;-73
2022/03/30 08:23:20;;;;;;;47.42;20.10;;;;;12.10;94872.00;;;;8388356;28;20326;-74
2022/03/30 08:27:27;;;;;;;43.72;20.45;;;;;12.20;94874.00;;;;8389947;28;20236;-75
2022/03/30 08:31:30;;;;;;;46.90;21.10;;;;;12.20;94875.00;;;;8389050;28;20259;-75
2022/03/30 08:35:34;;;;;;;42.38;20.30;;;;;12.30;94876.00;;;;8394264;28;20576;-76
2022/03/30 08:39:37;;;;;;;38.60;19.15;;;;;12.20;94870.00;;;;8391746;28;20242;-78
2022/03/30 08:43:42;;;;;;;469.58;158.00;;;;;12.20;94877.00;;;;8389613;28;20235;-78
2022/03/30 08:47:45;;;;;;;58.97;24.63;;;;;12.30;94875.00;;;;8392040;28;20258;-78
2022/03/30 08:51:50;;;;;;;132.07;40.10;;;;;12.30;94871.00;;;;8388128;28;20290;-80
2022/03/30 08:55:53;;;;;;;178.93;54.47;;;;;12.10;94872.00;;;;8382349;28;20233;-82
2022/03/30 09:00:04;;;;;;;174.18;59.78;;;;;12.00;94870.00;;;;8380092;28;20326;-80
2022/03/30 09:04:10;;;;;;;159.32;59.28;;;;;12.00;94869.00;;;;8384973;28;20323;-79
2022/03/30 09:08:17;;;;;;;86.38;33.70;;;;;11.80;94863.00;;;;8383301;28;20227;-75
2022/03/30 09:12:27;;;;;;;45.03;17.27;;;;;11.60;94864.00;;;;8379385;28;20240;-75
2022/03/30 09:16:41;;;;;;;39.00;16.27;;;;;11.40;94860.00;;;;8382270;28;20231;-76
2022/03/30 09:20:47;;;;;;;42.30;15.68;;;;;11.30;94854.00;;;;8393209;28;20227;-76
2022/03/30 09:24:56;;;;;;;42.85;16.23;;;;;11.20;94850.00;;;;8389680;28;20365;-77
2022/03/30 09:29:00;;;;;;;32.23;15.27;;;;;11.10;94852.00;;;;8388189;28;20876;-77
2022/03/30 09:33:08;;;;;;;43.38;15.30;;;;;11.20;94848.00;;;;8384386;28;20224;-77
2022/03/30 09:37:12;;;;;;;39.83;16.70;;;;;11.20;94853.00;;;;8391745;28;20228;-76
2022/03/30 09:41:20;;;;;;;47.67;16.58;;;;;11.20;94849.00;;;;8381481;28;20270;-76
2022/03/30 09:45:29;;;;;;;44.17;16.63;;;;;11.30;94848.00;;;;8383978;28;20236;-76
2022/03/30 09:49:40;;;;;;;38.27;16.60;;;;;11.40;94850.00;;;;8390524;28;20235;-75
2022/03/30 09:53:44;;;;;;;43.20;16.55;;;;;11.20;94846.00;;;;8386811;28;20227;-76
2022/03/30 09:57:49;;;;;;;39.83;16.57;;;;;11.10;94839.00;;;;8384881;28;20231;-74
2022/03/30 10:01:52;;;;;;;37.00;15.97;;;;;11.20;94826.00;;;;8388876;28;20233;-74
2022/03/30 10:05:57;;;;;;;41.97;16.63;;;;;11.40;94828.00;;;;8381699;28;20730;-76
2022/03/30 10:10:01;;;;;;;33.15;16.27;;;;;11.60;94823.00;;;;8385604;28;20223;-74
2022/03/30 10:14:05;;;;;;;40.88;17.95;;;;;11.50;94808.00;;;;8384210;28;20230;-76
2022/03/30 10:18:15;;;;;;;49.70;17.50;;;;;11.50;94798.00;;;;8383569;28;20235;-75
2022/03/30 10:22:39;;;;;;;39.25;17.33;;;;;11.60;94803.00;;;;8383142;28;20307;-75
2022/03/30 10:26:53;;;;;;;41.47;15.30;;;;;11.60;94793.00;;;;8384763;28;20224;-76
2022/03/30 10:30:58;;;;;;;34.77;14.43;;;;;11.60;94795.00;;;;8381627;28;20762;-77
2022/03/30 10:35:04;;;;;;;34.27;13.53;;;;;11.50;94788.00;;;;8380411;28;20240;-76
2022/03/30 10:39:24;;;;;;;33.80;13.10;;;;;11.20;94792.00;;;;8386399;28;20245;-76
2022/03/30 10:43:48;;;;;;;43.47;14.33;;;;;11.10;94796.00;;;;8388422;28;20223;-77
2022/03/30 10:48:15;;;;;;;40.33;15.13;;;;;11.00;94796.00;;;;8390343;28;20231;-77
2022/03/30 10:52:41;;;;;;;36.83;14.68;;;;;10.90;94796.00;;;;8386763;28;20239;-78
2022/03/30 10:56:53;;;;;;;38.80;14.43;;;;;10.90;94799.00;;;;8386290;28;20310;-78
2022/03/30 11:01:12;;;;;;;31.00;15.27;;;;;11.00;94798.00;;;;8365614;28;20257;-75
2022/03/30 11:05:26;;;;;;;39.00;15.43;;;;;11.10;94801.00;;;;8381098;28;21173;-74
2022/03/30 11:09:30;;;;;;;32.50;15.23;;;;;11.10;94791.00;;;;8377036;28;20295;-74
2022/03/30 11:13:35;;;;;;;35.70;15.90;;;;;11.10;94779.00;;;;8371257;28;20224;-73
2022/03/30 11:17:40;;;;;;;39.50;15.85;;;;;11.20;94780.00;;;;8371856;28;20231;-72
2022/03/30 11:21:54;;;;;;;39.33;16.13;;;;;11.20;94773.00;;;;8375258;28;20223;-72
2022/03/30 11:25:57;;;;;;;35.90;16.73;;;;;11.40;94789.00;;;;8379276;28;20342;-74
2022/03/30 11:30:13;;;;;;;44.53;17.00;;;;;11.50;94780.00;;;;8364803;28;20220;-74
2022/03/30 11:34:27;;;;;;;49.70;17.07;;;;;11.60;94773.00;;;;8374231;28;20855;-76
2022/03/30 11:38:37;;;;;;;47.70;17.05;;;;;11.50;94769.00;;;;8372329;28;20307;-73
2022/03/30 11:42:42;;;;;;;35.30;16.52;;;;;11.50;94767.00;;;;8372866;28;20315;-73
2022/03/30 11:46:52;;;;;;;46.63;17.08;;;;;11.50;94765.00;;;;8367529;28;20311;-73
2022/03/30 11:50:58;;;;;;;39.50;15.53;;;;;11.40;94753.00;;;;8372183;28;20230;-73
2022/03/30 11:55:01;;;;;;;39.37;15.83;;;;;11.30;94748.00;;;;8376076;28;20313;-72
2022/03/30 11:59:05;;;;;;;38.22;13.90;;;;;11.20;94734.00;;;;8375058;28;20231;-72
2022/03/30 12:03:09;;;;;;;38.78;14.77;;;;;11.10;94730.00;;;;8374575;28;20685;-74
2022/03/30 12:07:15;;;;;;;334.95;210.85;;;;;11.10;94732.00;;;;8373354;28;20228;-71
2022/03/30 12:11:20;;;;;;;45.40;23.20;;;;;11.00;94736.00;;;;8372076;28;20597;-72
2022/03/30 12:15:23;;;;;;;550.78;250.20;;;;;11.00;94730.00;;;;8376366;28;20239;-72
2022/03/30 12:19:28;;;;;;;1110.43;588.93;;;;;11.00;94724.00;;;;8384434;28;20220;-72
2022/03/30 12:23:31;;;;;;;125.15;61.92;;;;;11.10;94716.00;;;;8381867;28;20244;-72
2022/03/30 12:27:41;;;;;;;71.38;34.25;;;;;11.20;94712.00;;;;8370681;28;20723;-73
2022/03/30 12:31:50;;;;;;;147.27;107.07;;;;;11.30;94716.00;;;;8373653;28;20576;-70
2022/03/30 12:35:55;;;;;;;51.00;30.05;;;;;11.20;94710.00;;;;8373609;28;20240;-73
2022/03/30 12:40:08;;;;;;;46.83;22.88;;;;;11.20;94708.00;;;;8378420;28;20230;-70
2022/03/30 12:44:12;;;;;;;45.63;23.27;;;;;11.20;94711.00;;;;8375285;28;20232;-71
2022/03/30 12:48:15;;;;;;;37.03;17.47;;;;;11.10;94706.00;;;;8379708;28;20238;-72
2022/03/30 12:52:21;;;;;;;38.30;16.07;;;;;11.10;94696.00;;;;8379426;28;20227;-71
2022/03/30 12:56:24;;;;;;;41.63;14.27;;;;;11.20;94681.00;;;;8379580;28;20417;-72
2022/03/30 13:00:37;;;;;;;35.55;12.73;;;;;11.20;94692.00;;;;8384725;28;20242;-71
2022/03/30 13:04:49;;;;;;;39.17;14.30;;;;;11.30;94688.00;;;;8383443;28;20681;-70
2022/03/30 13:09:14;;;;;;;1537.78;655.30;;;;;11.30;94680.00;;;;8377587;28;20234;-74
2022/03/30 13:13:19;;;;;;;135.27;83.88;;;;;11.40;94675.00;;;;8378808;28;20217;-72
2022/03/30 13:17:22;;;;;;;49.17;25.17;;;;;11.40;94664.00;;;;8377048;28;20882;-71
2022/03/30 13:21:25;;;;;;;35.00;18.40;;;;;11.40;94664.00;;;;8381784;28;20224;-73
2022/03/30 13:25:34;;;;;;;61.13;37.70;;;;;11.40;94653.00;;;;8378436;28;20647;-73
2022/03/30 13:29:38;;;;;;;45.28;21.98;;;;;11.30;94647.00;;;;8379278;28;20725;-73
2022/03/30 13:33:41;;;;;;;172.88;129.32;;;;;11.20;94636.00;;;;8376296;28;20231;-74
2022/03/30 13:37:44;;;;;;;52.13;22.20;;;;;11.20;94636.00;;;;8379954;28;20641;-73
2022/03/30 13:41:52;;;;;;;104.03;67.10;;;;;11.20;94632.00;;;;8375917;28;20227;-73
2022/03/30 13:45:55;;;;;;;57.23;31.30;;;;;11.30;94635.00;;;;8377338;28;20250;-70
2022/03/30 13:49:59;;;;;;;74.47;48.43;;;;;11.30;94633.00;;;;8375578;28;20228;-73
2022/03/30 13:54:09;;;;;;;40.80;16.50;;;;;11.30;94620.00;;;;8383731;28;20238;-72
2022/03/30 13:58:14;;;;;;;37.47;15.33;;;;;11.40;94623.00;;;;8371278;28;20669;-72
2022/03/30 14:02:22;;;;;;;33.53;15.50;;;;;11.40;94616.00;;;;8371245;28;20301;-73
2022/03/30 14:06:26;;;;;;;44.67;16.33;;;;;11.40;94607.00;;;;8372617;28;20235;-72
2022/03/30 14:10:30;;;;;;;36.17;14.40;;;;;11.40;94605.00;;;;8372389;28;20227;-73
2022/03/30 14:14:35;;;;;;;39.40;13.80;;;;;11.50;94599.00;;;;8372076;28;20227;-73
2022/03/30 14:18:39;;;;;;;37.63;13.43;;;;;11.50;94605.00;;;;8372678;28;20672;-74
2022/03/30 14:22:44;;;;;;;34.50;12.93;;;;;11.50;94599.00;;;;8372705;28;20228;-75
2022/03/30 14:26:47;;;;;;;34.93;13.60;;;;;11.60;94596.00;;;;8375167;28;20239;-74
2022/03/30 14:30:52;;;;;;;41.83;15.17;;;;;11.70;94584.00;;;;8373542;28;20219;-74
2022/03/30 14:34:55;;;;;;;42.60;15.60;;;;;11.80;94582.00;;;;8374763;28;20228;-73
2022/03/30 14:38:58;;;;;;;34.67;13.52;;;;;11.60;94586.00;;;;8374475;28;20223;-73
2022/03/30 14:43:02;;;;;;;27.73;11.73;;;;;11.40;94578.00;;;;8374039;28;20312;-74
2022/03/30 14:47:07;;;;;;;25.08;11.90;;;;;11.20;94582.00;;;;8379826;28;20272;-73
2022/03/30 14:51:10;;;;;;;25.67;11.70;;;;;11.10;94579.00;;;;8371331;28;20314;-73
2022/03/30 14:55:14;;;;;;;25.75;11.98;;;;;11.00;94569.00;;;;8380765;28;20236;-74
2022/03/30 14:59:18;;;;;;;22.17;11.57;;;;;11.00;94567.00;;;;8375362;28;20617;-74
2022/03/30 15:03:22;;;;;;;26.58;12.45;;;;;11.00;94570.00;;;;8380994;28;20228;-75
2022/03/30 15:07:26;;;;;;;24.07;11.60;;;;;11.10;94559.00;;;;8379682;28;20644;-74
2022/03/30 15:11:31;;;;;;;23.20;12.73;;;;;11.20;94560.00;;;;8382292;28;20667;-78
2022/03/30 15:15:34;;;;;;;24.50;12.43;;;;;11.30;94567.00;;;;8378759;28;20220;-76
2022/03/30 15:19:39;;;;;;;25.35;13.40;;;;;11.50;94558.00;;;;8383688;28;20227;-81
2022/03/30 15:23:42;;;;;;;31.65;13.50;;;;;11.80;94558.00;;;;8383964;28;20984;-80
2022/03/30 15:27:46;;;;;;;25.50;13.95;;;;;11.90;94559.00;;;;8381978;28;20696;-79
2022/03/30 15:31:49;;;;;;;30.77;13.83;;;;;12.00;94559.00;;;;8382337;28;20250;-76
2022/03/30 15:35:54;;;;;;;34.25;13.85;;;;;12.00;94547.00;;;;8378504;28;20315;-82
2022/03/30 15:39:57;;;;;;;23.25;13.15;;;;;12.10;94548.00;;;;8380551;28;20278;-79
2022/03/30 15:44:00;;;;;;;32.33;14.10;;;;;12.20;94543.00;;;;8371126;28;20215;-79
2022/03/30 15:48:06;;;;;;;32.97;16.25;;;;;12.20;94548.00;;;;8374227;28;20231;-72
2022/03/30 15:52:12;;;;;;;28.20;14.73;;;;;12.20;94540.00;;;;8377168;28;20232;-80
2022/03/30 15:56:16;;;;;;;35.15;14.98;;;;;12.30;94548.00;;;;8373057;28;20303;-76
2022/03/30 16:00:20;;;;;;;25.00;13.57;;;;;12.40;94536.00;;;;8371724;28;20224;-74
2022/03/30 16:04:23;;;;;;;29.90;13.95;;;;;12.60;94536.00;;;;8373145;28;20233;-73
2022/03/30 16:12:49;;;;;;;593.10;392.23;;;;;12.60;94538.00;;;;8372680;28;20232;-75
2022/03/30 16:16:52;;;;;;;114.43;54.53;;;;;12.60;94536.00;;;;8374214;28;20231;-76
2022/03/30 16:20:56;;;;;;;50.15;26.05;;;;;12.60;94534.00;;;;8377476;28;20630;-76
2022/03/30 16:25:01;;;;;;;307.77;218.77;;;;;12.50;94531.00;;;;8383160;28;20244;-73
2022/03/30 16:29:04;;;;;;;27.75;19.10;;;;;12.40;94535.00;;;;8384433;28;20331;-75
2022/03/30 16:33:07;;;;;;;34.00;17.08;;;;;12.50;94545.00;;;;8383023;28;20221;-75
2022/03/30 16:37:11;;;;;;;25.77;15.90;;;;;12.50;94541.00;;;;8380156;28;20700;-75
2022/03/30 16:41:16;;;;;;;38.00;19.90;;;;;12.40;94530.00;;;;8380008;28;20236;-74
2022/03/30 16:45:21;;;;;;;27.98;16.13;;;;;12.40;94533.00;;;;8380619;28;20233;-74
2022/03/30 16:49:25;;;;;;;36.33;19.35;;;;;12.30;94540.00;;;;8378432;28;20232;-75
2022/03/30 16:53:29;;;;;;;31.75;16.77;;;;;12.20;94535.00;;;;8367151;28;20775;-74
2022/03/30 16:57:35;;;;;;;34.20;15.02;;;;;12.20;94540.00;;;;8385518;28;20231;-74
2022/03/30 17:01:39;;;;;;;28.60;14.45;;;;;12.10;94538.00;;;;8378581;28;20253;-74
2022/03/30 17:05:43;;;;;;;34.65;17.08;;;;;12.00;94531.00;;;;8391654;28;20259;-73
2022/03/30 17:10:00;;;;;;;32.47;15.63;;;;;12.00;94532.00;;;;8383414;28;20228;-69
2022/03/30 17:14:06;;;;;;;39.03;17.10;;;;;11.90;94539.00;;;;8378016;28;20263;-69
2022/03/30 17:18:10;;;;;;;36.72;16.13;;;;;11.90;94529.00;;;;8377571;28;20294;-69
2022/03/30 17:22:15;;;;;;;33.30;15.73;;;;;11.90;94530.00;;;;8380171;28;20238;-68
2022/03/30 17:26:19;;;;;;;36.00;15.52;;;;;11.90;94534.00;;;;8384295;28;20215;-68
2022/03/30 17:30:24;;;;;;;33.13;16.88;;;;;11.80;94528.00;;;;8379172;28;20227;-70
2022/03/30 17:34:28;;;;;;;35.10;17.77;;;;;11.70;94529.00;;;;8381055;28;20229;-71
2022/03/30 17:38:32;;;;;;;31.88;16.30;;;;;11.70;94525.00;;;;8379016;28;20745;-70
2022/03/30 17:42:36;;;;;;;35.70;15.98;;;;;11.70;94533.00;;;;8380547;28;20226;-70
2022/03/30 17:46:41;;;;;;;44.10;17.52;;;;;11.70;94532.00;;;;8377386;28;20253;-70
2022/03/30 17:55:08;;;;;;;35.40;16.27;;;;;11.70;94537.00;;;;8377373;28;20222;-70
2022/03/30 17:59:11;;;;;;;33.08;15.75;;;;;11.70;94528.00;;;;8378275;28;20266;-70
2022/03/30 18:03:20;;;;;;;38.28;17.73;;;;;11.70;94529.00;;;;8378092;28;20227;-70
2022/03/30 18:07:23;;;;;;;36.80;18.33;;;;;11.60;94527.00;;;;8380692;28;20222;-70
2022/03/30 18:11:26;;;;;;;40.15;17.60;;;;;11.50;94537.00;;;;8375324;28;20231;-70
2022/03/30 18:15:39;;;;;;;40.38;16.75;;;;;11.40;94538.00;;;;8370898;28;20906;-69
2022/03/30 18:19:45;;;;;;;44.43;18.00;;;;;11.30;94536.00;;;;8375412;28;21703;-70
2022/03/30 18:23:48;;;;;;;45.63;18.67;;;;;11.20;94545.00;;;;8373736;28;20229;-70
2022/03/30 18:27:52;;;;;;;46.30;19.00;;;;;11.10;94554.00;;;;8379511;28;20227;-70
2022/03/30 18:31:55;;;;;;;42.57;19.70;;;;;11.00;94557.00;;;;8372608;28;20328;-70
2022/03/30 18:36:00;;;;;;;37.40;18.37;;;;;11.00;94554.00;;;;8378164;28;20224;-72
2022/03/30 18:40:03;;;;;;;45.43;18.83;;;;;10.90;94561.00;;;;8377469;28;20921;-71
2022/03/30 18:44:08;;;;;;;44.88;19.38;;;;;10.80;94563.00;;;;8379855;28;20219;-70
2022/03/30 18:48:12;;;;;;;40.80;17.97;;;;;10.80;94561.00;;;;8379029;28;20236;-71
2022/03/30 18:52:26;;;;;;;49.23;19.80;;;;;10.60;94554.00;;;;8378483;28;20224;-71
2022/03/30 18:56:30;;;;;;;39.30;18.23;;;;;10.60;94560.00;;;;8377520;28;21146;-70
2022/03/30 19:00:34;;;;;;;39.83;18.70;;;;;10.50;94557.00;;;;8385127;28;20227;-71
2022/03/30 19:04:37;;;;;;;39.43;17.50;;;;;10.40;94560.00;;;;8380673;28;20232;-71
2022/03/30 19:08:42;;;;;;;33.40;17.23;;;;;10.30;94552.00;;;;8378341;28;20227;-70
2022/03/30 19:12:46;;;;;;;39.83;19.87;;;;;10.20;94566.00;;;;8372763;28;20238;-73
2022/03/30 19:16:49;;;;;;;38.30;19.40;;;;;10.10;94556.00;;;;8374549;28;20211;-72
2022/03/30 19:20:52;;;;;;;44.20;21.13;;;;;10.10;94556.00;;;;8372283;28;20877;-72
2022/03/30 19:24:57;;;;;;;39.10;19.37;;;;;10.10;94570.00;;;;8377367;28;20230;-70
2022/03/30 19:29:00;;;;;;;42.20;19.30;;;;;10.10;94570.00;;;;8380490;28;20227;-71
2022/03/30 19:33:04;;;;;;;44.70;19.53;;;;;10.10;94563.00;;;;8382094;28;20220;-72
2022/03/30 19:37:12;;;;;;;40.17;18.13;;;;;10.10;94572.00;;;;8372134;28;20227;-70
2022/03/30 19:41:17;;;;;;;40.77;18.93;;;;;10.10;94574.00;;;;8380600;28;20228;-70
2022/03/30 19:45:20;;;;;;;35.83;18.97;;;;;10.10;94565.00;;;;8375087;28;20688;-71
2022/03/30 19:49:23;;;;;;;34.07;18.53;;;;;10.10;94562.00;;;;8376747;28;20332;-70
2022/03/30 19:53:26;;;;;;;32.37;16.80;;;;;10.10;94565.00;;;;8375952;28;20228;-70
2022/03/30 19:57:31;;;;;;;38.20;18.10;;;;;10.10;94572.00;;;;8388019;28;20776;-71
2022/03/30 20:01:35;;;;;;;32.93;16.17;;;;;10.10;94573.00;;;;8385706;28;20225;-71
2022/03/30 20:05:38;;;;;;;30.83;17.90;;;;;10.10;94576.00;;;;8386591;28;20581;-71
2022/03/30 20:09:41;;;;;;;34.83;17.23;;;;;10.10;94572.00;;;;8382853;28;20242;-72
2022/03/30 20:13:46;;;;;;;33.87;17.77;;;;;10.10;94571.00;;;;8387461;28;20227;-71
2022/03/30 20:17:49;;;;;;;30.37;15.87;;;;;10.20;94581.00;;;;8386593;28;20917;-70